sensor_id;sensor_type;location;lat;lon;timestamp;P1;durP1;ratioP1;P2;durP2;ratioP2
11046;SDS011;5576;50.008;10.596;2023-03-01T00:02:00;14.40;;;12.90;;
11046;SDS011;5576;50.008;10.596;2023-03-01T00:04:26;15.07;;;13.48;;
11046;SDS011;5576;50.008;10.596;2023-03-01T00:06:53;14.27;;;12.77;;
11046;SDS011;5576;50.008;10.596;2023-03-01T00:09:19;14.33;;;12.83;;
11046;SDS011;5576;50.008;10.596;2023-03-01T00:11:45;14.70;;;13.10;;
11046;SDS011;5576;50.008;10.596;2023-03-01T00:14:11;14.73;;;12.70;;
11046;SDS011;5576;50.008;10.596;2023-03-01T00:16:39;14.87;;;13.27;;
11046;SDS011;5576;50.008;10.596;2023-03-01T00:19:07;14.25;;;12.45;;
11046;SDS011;5576;50.008;10.596;2023-03-01T00:21:35;13.88;;;12.48;;
11046;SDS011;5576;50.008;10.596;2023-03-01T00:24:01;14.60;;;12.80;;
11046;SDS011;5576;50.008;10.596;2023-03-01T00:26:27;14.52;;;12.90;;
11046;SDS011;5576;50.008;10.596;2023-03-01T00:28:54;14.80;;;13.20;;
11046;SDS011;5576;50.008;10.596;2023-03-01T00:31:22;14.87;;;13.30;;
11046;SDS011;5576;50.008;10.596;2023-03-01T00:33:52;15.80;;;13.73;;
11046;SDS011;5576;50.008;10.596;2023-03-01T00:36:23;15.60;;;13.90;;
11046;SDS011;5576;50.008;10.596;2023-03-01T00:38:50;15.15;;;13.55;;
11046;SDS011;5576;50.008;10.596;2023-03-01T00:41:16;15.43;;;13.65;;
11046;SDS011;5576;50.008;10.596;2023-03-01T00:43:44;16.27;;;13.68;;
11046;SDS011;5576;50.008;10.596;2023-03-01T00:46:11;15.57;;;13.68;;
11046;SDS011;5576;50.008;10.596;2023-03-01T00:48:38;17.05;;;14.75;;
11046;SDS011;5576;50.008;10.596;2023-03-01T00:51:06;16.40;;;14.07;;
11046;SDS011;5576;50.008;10.596;2023-03-01T00:53:33;15.47;;;13.87;;
11046;SDS011;5576;50.008;10.596;2023-03-01T00:55:59;15.88;;;14.20;;
11046;SDS011;5576;50.008;10.596;2023-03-01T00:58:25;16.20;;;14.18;;
11046;SDS011;5576;50.008;10.596;2023-03-01T01:00:51;16.90;;;14.70;;
11046;SDS011;5576;50.008;10.596;2023-03-01T01:03:18;16.50;;;14.80;;
11046;SDS011;5576;50.008;10.596;2023-03-01T01:05:44;15.40;;;13.68;;
11046;SDS011;5576;50.008;10.596;2023-03-01T01:08:10;16.08;;;14.30;;
11046;SDS011;5576;50.008;10.596;2023-03-01T01:10:36;15.60;;;14.00;;
11046;SDS011;5576;50.008;10.596;2023-03-01T01:13:02;15.52;;;13.93;;
11046;SDS011;5576;50.008;10.596;2023-03-01T01:15:28;16.85;;;14.18;;
11046;SDS011;5576;50.008;10.596;2023-03-01T01:17:58;15.40;;;13.70;;
11046;SDS011;5576;50.008;10.596;2023-03-01T01:20:24;15.93;;;13.60;;
11046;SDS011;5576;50.008;10.596;2023-03-01T01:22:49;16.20;;;14.43;;
11046;SDS011;5576;50.008;10.596;2023-03-01T01:25:16;15.02;;;13.38;;
11046;SDS011;5576;50.008;10.596;2023-03-01T01:27:42;15.90;;;14.00;;
11046;SDS011;5576;50.008;10.596;2023-03-01T01:30:08;15.60;;;14.00;;
11046;SDS011;5576;50.008;10.596;2023-03-01T01:32:34;15.85;;;14.15;;
11046;SDS011;5576;50.008;10.596;2023-03-01T01:35:00;15.97;;;14.27;;
11046;SDS011;5576;50.008;10.596;2023-03-01T01:37:26;15.63;;;13.82;;
11046;SDS011;5576;50.008;10.596;2023-03-01T01:39:57;15.90;;;14.20;;
11046;SDS011;5576;50.008;10.596;2023-03-01T01:42:24;16.00;;;13.90;;
11046;SDS011;5576;50.008;10.596;2023-03-01T01:47:55;15.80;;;14.10;;
11046;SDS011;5576;50.008;10.596;2023-03-01T01:50:25;15.82;;;13.98;;
11046;SDS011;5576;50.008;10.596;2023-03-01T01:52:51;16.40;;;14.35;;
11046;SDS011;5576;50.008;10.596;2023-03-01T01:55:21;15.73;;;14.13;;
11046;SDS011;5576;50.008;10.596;2023-03-01T01:57:53;17.48;;;14.85;;
11046;SDS011;5576;50.008;10.596;2023-03-01T02:00:24;16.23;;;14.48;;
11046;SDS011;5576;50.008;10.596;2023-03-01T02:02:55;16.15;;;14.38;;
11046;SDS011;5576;50.008;10.596;2023-03-01T02:08:15;16.88;;;14.40;;
11046;SDS011;5576;50.008;10.596;2023-03-01T02:10:44;16.30;;;14.57;;
11046;SDS011;5576;50.008;10.596;2023-03-01T02:13:11;16.30;;;13.95;;
11046;SDS011;5576;50.008;10.596;2023-03-01T02:15:38;16.08;;;14.18;;
11046;SDS011;5576;50.008;10.596;2023-03-01T02:18:05;16.13;;;14.43;;
11046;SDS011;5576;50.008;10.596;2023-03-01T02:23:10;15.67;;;14.03;;
11046;SDS011;5576;50.008;10.596;2023-03-01T02:25:39;15.35;;;13.73;;
11046;SDS011;5576;50.008;10.596;2023-03-01T02:30:43;16.37;;;14.03;;
11046;SDS011;5576;50.008;10.596;2023-03-01T02:33:32;15.27;;;13.68;;
11046;SDS011;5576;50.008;10.596;2023-03-01T02:36:01;15.32;;;13.73;;
11046;SDS011;5576;50.008;10.596;2023-03-01T02:38:31;16.13;;;13.98;;
11046;SDS011;5576;50.008;10.596;2023-03-01T02:40:58;15.88;;;13.80;;
11046;SDS011;5576;50.008;10.596;2023-03-01T02:43:25;16.10;;;14.07;;
11046;SDS011;5576;50.008;10.596;2023-03-01T02:45:57;15.60;;;13.95;;
11046;SDS011;5576;50.008;10.596;2023-03-01T02:48:26;16.50;;;14.23;;
11046;SDS011;5576;50.008;10.596;2023-03-01T02:50:57;15.95;;;14.20;;
11046;SDS011;5576;50.008;10.596;2023-03-01T02:56:15;15.45;;;13.80;;
11046;SDS011;5576;50.008;10.596;2023-03-01T02:58:41;15.23;;;13.45;;
11046;SDS011;5576;50.008;10.596;2023-03-01T03:01:13;15.02;;;13.38;;
11046;SDS011;5576;50.008;10.596;2023-03-01T03:03:41;14.50;;;13.00;;
11046;SDS011;5576;50.008;10.596;2023-03-01T03:06:07;14.80;;;12.93;;
11046;SDS011;5576;50.008;10.596;2023-03-01T03:08:33;15.15;;;13.55;;
11046;SDS011;5576;50.008;10.596;2023-03-01T03:10:59;15.00;;;13.33;;
11046;SDS011;5576;50.008;10.596;2023-03-01T03:13:25;15.70;;;13.20;;
11046;SDS011;5576;50.008;10.596;2023-03-01T03:15:54;15.30;;;13.10;;
11046;SDS011;5576;50.008;10.596;2023-03-01T03:18:21;14.68;;;13.10;;
11046;SDS011;5576;50.008;10.596;2023-03-01T03:20:47;15.38;;;13.75;;
11046;SDS011;5576;50.008;10.596;2023-03-01T03:23:18;15.20;;;13.38;;
11046;SDS011;5576;50.008;10.596;2023-03-01T03:25:44;15.95;;;14.25;;
11046;SDS011;5576;50.008;10.596;2023-03-01T03:28:14;16.40;;;14.38;;
11046;SDS011;5576;50.008;10.596;2023-03-01T03:30:41;15.43;;;13.82;;
11046;SDS011;5576;50.008;10.596;2023-03-01T03:33:08;15.63;;;13.93;;
11046;SDS011;5576;50.008;10.596;2023-03-01T03:35:39;16.45;;;14.32;;
11046;SDS011;5576;50.008;10.596;2023-03-01T03:38:08;16.50;;;14.65;;
11046;SDS011;5576;50.008;10.596;2023-03-01T03:40:43;16.23;;;14.50;;
11046;SDS011;5576;50.008;10.596;2023-03-01T03:43:14;15.95;;;13.90;;
11046;SDS011;5576;50.008;10.596;2023-03-01T03:45:43;15.32;;;13.63;;
11046;SDS011;5576;50.008;10.596;2023-03-01T03:48:10;15.82;;;14.13;;
11046;SDS011;5576;50.008;10.596;2023-03-01T03:50:37;15.88;;;14.10;;
11046;SDS011;5576;50.008;10.596;2023-03-01T03:53:07;15.68;;;13.82;;
11046;SDS011;5576;50.008;10.596;2023-03-01T03:55:37;16.30;;;13.77;;
11046;SDS011;5576;50.008;10.596;2023-03-01T03:58:04;15.93;;;14.05;;
11046;SDS011;5576;50.008;10.596;2023-03-01T04:00:34;15.85;;;14.05;;
11046;SDS011;5576;50.008;10.596;2023-03-01T04:03:01;15.55;;;13.95;;
11046;SDS011;5576;50.008;10.596;2023-03-01T04:05:28;16.38;;;14.15;;
11046;SDS011;5576;50.008;10.596;2023-03-01T04:07:54;16.27;;;14.57;;
11046;SDS011;5576;50.008;10.596;2023-03-01T04:10:29;16.33;;;14.50;;
11046;SDS011;5576;50.008;10.596;2023-03-01T04:12:56;16.92;;;15.13;;
11046;SDS011;5576;50.008;10.596;2023-03-01T04:15:23;17.17;;;15.02;;
11046;SDS011;5576;50.008;10.596;2023-03-01T04:17:50;15.80;;;13.90;;
11046;SDS011;5576;50.008;10.596;2023-03-01T04:20:19;16.08;;;14.38;;
11046;SDS011;5576;50.008;10.596;2023-03-01T04:22:51;15.05;;;13.55;;
11046;SDS011;5576;50.008;10.596;2023-03-01T04:25:18;16.73;;;14.93;;
11046;SDS011;5576;50.008;10.596;2023-03-01T04:27:44;16.80;;;15.00;;
11046;SDS011;5576;50.008;10.596;2023-03-01T04:30:10;16.88;;;15.05;;
11046;SDS011;5576;50.008;10.596;2023-03-01T04:32:36;17.23;;;15.40;;
11046;SDS011;5576;50.008;10.596;2023-03-01T04:35:02;17.40;;;15.23;;
11046;SDS011;5576;50.008;10.596;2023-03-01T04:37:28;17.48;;;15.05;;
11046;SDS011;5576;50.008;10.596;2023-03-01T04:39:54;17.13;;;15.32;;
11046;SDS011;5576;50.008;10.596;2023-03-01T04:42:20;16.27;;;14.63;;
11046;SDS011;5576;50.008;10.596;2023-03-01T04:44:46;16.20;;;14.50;;
11046;SDS011;5576;50.008;10.596;2023-03-01T04:47:12;17.73;;;14.73;;
11046;SDS011;5576;50.008;10.596;2023-03-01T04:49:38;16.65;;;14.27;;
11046;SDS011;5576;50.008;10.596;2023-03-01T04:52:04;16.07;;;14.37;;
11046;SDS011;5576;50.008;10.596;2023-03-01T04:54:31;16.73;;;14.55;;
11046;SDS011;5576;50.008;10.596;2023-03-01T04:56:58;16.63;;;14.82;;
11046;SDS011;5576;50.008;10.596;2023-03-01T04:59:24;16.10;;;14.40;;
11046;SDS011;5576;50.008;10.596;2023-03-01T05:01:50;17.30;;;14.85;;
11046;SDS011;5576;50.008;10.596;2023-03-01T05:04:17;16.60;;;14.68;;
11046;SDS011;5576;50.008;10.596;2023-03-01T05:06:43;17.52;;;14.68;;
11046;SDS011;5576;50.008;10.596;2023-03-01T05:09:09;16.65;;;14.95;;
11046;SDS011;5576;50.008;10.596;2023-03-01T05:11:36;17.75;;;15.93;;
11046;SDS011;5576;50.008;10.596;2023-03-01T05:14:03;17.30;;;15.25;;
11046;SDS011;5576;50.008;10.596;2023-03-01T05:16:29;18.05;;;15.57;;
11046;SDS011;5576;50.008;10.596;2023-03-01T05:18:56;18.83;;;16.08;;
11046;SDS011;5576;50.008;10.596;2023-03-01T05:21:23;18.30;;;16.30;;
11046;SDS011;5576;50.008;10.596;2023-03-01T05:23:49;18.13;;;16.20;;
11046;SDS011;5576;50.008;10.596;2023-03-01T05:26:16;18.77;;;15.93;;
11046;SDS011;5576;50.008;10.596;2023-03-01T05:28:43;17.50;;;15.43;;
11046;SDS011;5576;50.008;10.596;2023-03-01T05:31:09;18.55;;;15.68;;
11046;SDS011;5576;50.008;10.596;2023-03-01T05:33:37;18.38;;;16.23;;
11046;SDS011;5576;50.008;10.596;2023-03-01T05:36:03;17.45;;;15.65;;
11046;SDS011;5576;50.008;10.596;2023-03-01T05:38:31;19.05;;;15.65;;
11046;SDS011;5576;50.008;10.596;2023-03-01T05:40:56;17.00;;;15.20;;
11046;SDS011;5576;50.008;10.596;2023-03-01T05:43:22;18.80;;;16.07;;
11046;SDS011;5576;50.008;10.596;2023-03-01T05:45:48;18.10;;;16.20;;
11046;SDS011;5576;50.008;10.596;2023-03-01T05:48:14;18.97;;;16.43;;
11046;SDS011;5576;50.008;10.596;2023-03-01T05:50:40;18.23;;;15.88;;
11046;SDS011;5576;50.008;10.596;2023-03-01T05:53:13;18.42;;;16.13;;
11046;SDS011;5576;50.008;10.596;2023-03-01T05:55:44;17.50;;;15.60;;
11046;SDS011;5576;50.008;10.596;2023-03-01T05:58:14;17.55;;;15.23;;
11046;SDS011;5576;50.008;10.596;2023-03-01T06:00:41;18.00;;;16.10;;
11046;SDS011;5576;50.008;10.596;2023-03-01T06:03:09;18.23;;;16.33;;
11046;SDS011;5576;50.008;10.596;2023-03-01T06:05:36;17.90;;;15.98;;
11046;SDS011;5576;50.008;10.596;2023-03-01T06:08:02;17.60;;;15.80;;
11046;SDS011;5576;50.008;10.596;2023-03-01T06:10:28;23.27;;;19.40;;
11046;SDS011;5576;50.008;10.596;2023-03-01T06:12:54;27.40;;;21.63;;
11046;SDS011;5576;50.008;10.596;2023-03-01T06:15:20;20.33;;;16.97;;
11046;SDS011;5576;50.008;10.596;2023-03-01T06:17:47;17.77;;;15.88;;
11046;SDS011;5576;50.008;10.596;2023-03-01T06:20:14;18.00;;;16.20;;
11046;SDS011;5576;50.008;10.596;2023-03-01T06:22:45;19.50;;;17.40;;
11046;SDS011;5576;50.008;10.596;2023-03-01T06:25:13;23.02;;;19.90;;
11046;SDS011;5576;50.008;10.596;2023-03-01T06:27:40;22.75;;;19.33;;
11046;SDS011;5576;50.008;10.596;2023-03-01T06:30:07;22.10;;;18.73;;
11046;SDS011;5576;50.008;10.596;2023-03-01T06:32:35;21.13;;;17.60;;
11046;SDS011;5576;50.008;10.596;2023-03-01T06:35:02;19.77;;;17.63;;
11046;SDS011;5576;50.008;10.596;2023-03-01T06:37:29;19.27;;;17.05;;
11046;SDS011;5576;50.008;10.596;2023-03-01T06:39:55;19.92;;;17.83;;
11046;SDS011;5576;50.008;10.596;2023-03-01T06:42:21;19.13;;;16.80;;
11046;SDS011;5576;50.008;10.596;2023-03-01T06:44:46;19.55;;;17.42;;
11046;SDS011;5576;50.008;10.596;2023-03-01T06:47:12;19.80;;;17.05;;
11046;SDS011;5576;50.008;10.596;2023-03-01T06:49:38;19.43;;;17.43;;
11046;SDS011;5576;50.008;10.596;2023-03-01T06:52:03;19.05;;;16.65;;
11046;SDS011;5576;50.008;10.596;2023-03-01T06:54:29;20.53;;;17.50;;
11046;SDS011;5576;50.008;10.596;2023-03-01T06:56:55;20.35;;;17.05;;
11046;SDS011;5576;50.008;10.596;2023-03-01T06:59:21;19.53;;;17.40;;
11046;SDS011;5576;50.008;10.596;2023-03-01T07:01:46;18.52;;;16.52;;
11046;SDS011;5576;50.008;10.596;2023-03-01T07:04:12;29.17;;;21.42;;
11046;SDS011;5576;50.008;10.596;2023-03-01T07:06:39;23.00;;;19.27;;
11046;SDS011;5576;50.008;10.596;2023-03-01T07:09:05;21.55;;;18.48;;
11046;SDS011;5576;50.008;10.596;2023-03-01T07:11:30;22.15;;;17.90;;
11046;SDS011;5576;50.008;10.596;2023-03-01T07:13:56;21.27;;;18.00;;
11046;SDS011;5576;50.008;10.596;2023-03-01T07:16:23;22.50;;;19.50;;
11046;SDS011;5576;50.008;10.596;2023-03-01T07:18:49;22.47;;;19.20;;
11046;SDS011;5576;50.008;10.596;2023-03-01T07:21:14;19.42;;;16.90;;
11046;SDS011;5576;50.008;10.596;2023-03-01T07:23:41;19.35;;;17.05;;
11046;SDS011;5576;50.008;10.596;2023-03-01T07:26:07;18.42;;;16.05;;
11046;SDS011;5576;50.008;10.596;2023-03-01T07:28:33;19.17;;;17.07;;
11046;SDS011;5576;50.008;10.596;2023-03-01T07:31:04;18.38;;;16.20;;
11046;SDS011;5576;50.008;10.596;2023-03-01T07:33:31;17.93;;;16.03;;
11046;SDS011;5576;50.008;10.596;2023-03-01T07:35:57;19.00;;;16.65;;
11046;SDS011;5576;50.008;10.596;2023-03-01T07:38:24;17.98;;;16.08;;
11046;SDS011;5576;50.008;10.596;2023-03-01T07:40:51;19.25;;;16.50;;
11046;SDS011;5576;50.008;10.596;2023-03-01T07:43:17;19.90;;;17.70;;
11046;SDS011;5576;50.008;10.596;2023-03-01T07:45:43;18.77;;;16.77;;
11046;SDS011;5576;50.008;10.596;2023-03-01T07:48:09;17.88;;;15.98;;
11046;SDS011;5576;50.008;10.596;2023-03-01T07:50:34;18.70;;;16.30;;
11046;SDS011;5576;50.008;10.596;2023-03-01T07:53:00;17.00;;;15.20;;
11046;SDS011;5576;50.008;10.596;2023-03-01T07:55:26;19.35;;;17.25;;
11046;SDS011;5576;50.008;10.596;2023-03-01T07:57:51;17.80;;;15.90;;
11046;SDS011;5576;50.008;10.596;2023-03-01T08:00:17;19.33;;;17.00;;
11046;SDS011;5576;50.008;10.596;2023-03-01T08:02:43;18.63;;;16.60;;
11046;SDS011;5576;50.008;10.596;2023-03-01T08:05:10;17.58;;;15.68;;
11046;SDS011;5576;50.008;10.596;2023-03-01T08:07:36;17.55;;;15.65;;
11046;SDS011;5576;50.008;10.596;2023-03-01T08:10:02;18.85;;;16.52;;
11046;SDS011;5576;50.008;10.596;2023-03-01T08:12:28;17.27;;;15.40;;
11046;SDS011;5576;50.008;10.596;2023-03-01T08:14:54;18.00;;;15.82;;
11046;SDS011;5576;50.008;10.596;2023-03-01T08:17:20;17.77;;;15.97;;
11046;SDS011;5576;50.008;10.596;2023-03-01T08:19:46;18.02;;;15.63;;
11046;SDS011;5576;50.008;10.596;2023-03-01T08:22:12;18.42;;;15.68;;
11046;SDS011;5576;50.008;10.596;2023-03-01T08:24:37;16.93;;;15.13;;
11046;SDS011;5576;50.008;10.596;2023-03-01T08:27:03;18.23;;;16.33;;
11046;SDS011;5576;50.008;10.596;2023-03-01T08:29:30;18.13;;;15.98;;
11046;SDS011;5576;50.008;10.596;2023-03-01T08:31:57;18.58;;;16.10;;
11046;SDS011;5576;50.008;10.596;2023-03-01T08:34:22;18.15;;;15.95;;
11046;SDS011;5576;50.008;10.596;2023-03-01T08:36:48;18.23;;;16.33;;
11046;SDS011;5576;50.008;10.596;2023-03-01T08:39:16;17.75;;;15.85;;
11046;SDS011;5576;50.008;10.596;2023-03-01T08:41:43;19.45;;;15.93;;
11046;SDS011;5576;50.008;10.596;2023-03-01T08:44:09;19.15;;;16.10;;
11046;SDS011;5576;50.008;10.596;2023-03-01T08:46:37;17.85;;;15.50;;
11046;SDS011;5576;50.008;10.596;2023-03-01T08:49:06;20.60;;;17.52;;
11046;SDS011;5576;50.008;10.596;2023-03-01T08:51:33;17.65;;;15.75;;
11046;SDS011;5576;50.008;10.596;2023-03-01T08:54:02;18.05;;;16.15;;
11046;SDS011;5576;50.008;10.596;2023-03-01T08:56:29;18.23;;;15.52;;
11046;SDS011;5576;50.008;10.596;2023-03-01T08:58:55;17.30;;;15.27;;
11046;SDS011;5576;50.008;10.596;2023-03-01T09:01:21;17.98;;;16.02;;
11046;SDS011;5576;50.008;10.596;2023-03-01T09:03:47;16.73;;;14.90;;
11046;SDS011;5576;50.008;10.596;2023-03-01T09:06:13;16.65;;;14.70;;
11046;SDS011;5576;50.008;10.596;2023-03-01T09:08:40;17.08;;;14.85;;
11046;SDS011;5576;50.008;10.596;2023-03-01T09:11:09;18.13;;;16.07;;
11046;SDS011;5576;50.008;10.596;2023-03-01T09:13:36;17.80;;;15.00;;
11046;SDS011;5576;50.008;10.596;2023-03-01T09:16:03;17.02;;;15.23;;
11046;SDS011;5576;50.008;10.596;2023-03-01T09:18:30;16.95;;;15.10;;
11046;SDS011;5576;50.008;10.596;2023-03-01T09:21:00;16.92;;;15.00;;
11046;SDS011;5576;50.008;10.596;2023-03-01T09:23:34;16.20;;;14.50;;
11046;SDS011;5576;50.008;10.596;2023-03-01T09:26:01;17.17;;;15.32;;
11046;SDS011;5576;50.008;10.596;2023-03-01T09:28:28;16.70;;;14.57;;
11046;SDS011;5576;50.008;10.596;2023-03-01T09:30:53;18.15;;;15.23;;
11046;SDS011;5576;50.008;10.596;2023-03-01T09:33:24;16.17;;;14.35;;
11046;SDS011;5576;50.008;10.596;2023-03-01T09:35:49;16.70;;;14.90;;
11046;SDS011;5576;50.008;10.596;2023-03-01T09:38:20;17.77;;;15.80;;
11046;SDS011;5576;50.008;10.596;2023-03-01T09:40:46;17.47;;;15.10;;
11046;SDS011;5576;50.008;10.596;2023-03-01T09:43:15;16.33;;;14.63;;
11046;SDS011;5576;50.008;10.596;2023-03-01T09:46:04;15.38;;;13.75;;
11046;SDS011;5576;50.008;10.596;2023-03-01T09:48:37;16.40;;;14.65;;
11046;SDS011;5576;50.008;10.596;2023-03-01T09:51:08;16.65;;;14.75;;
11046;SDS011;5576;50.008;10.596;2023-03-01T09:53:42;16.08;;;14.18;;
11046;SDS011;5576;50.008;10.596;2023-03-01T09:56:14;16.33;;;14.50;;
11046;SDS011;5576;50.008;10.596;2023-03-01T09:58:49;16.63;;;14.57;;
11046;SDS011;5576;50.008;10.596;2023-03-01T10:01:23;16.25;;;14.45;;
11046;SDS011;5576;50.008;10.596;2023-03-01T10:06:35;17.05;;;15.15;;
11046;SDS011;5576;50.008;10.596;2023-03-01T10:09:02;16.83;;;14.90;;
11046;SDS011;5576;50.008;10.596;2023-03-01T10:11:36;16.15;;;14.45;;
11046;SDS011;5576;50.008;10.596;2023-03-01T10:14:05;16.77;;;13.80;;
11046;SDS011;5576;50.008;10.596;2023-03-01T10:19:04;16.23;;;14.55;;
11046;SDS011;5576;50.008;10.596;2023-03-01T10:21:35;16.70;;;14.80;;
11046;SDS011;5576;50.008;10.596;2023-03-01T10:24:14;17.00;;;15.05;;
11046;SDS011;5576;50.008;10.596;2023-03-01T10:29:25;18.10;;;15.00;;
11046;SDS011;5576;50.008;10.596;2023-03-01T10:31:56;16.33;;;14.35;;
11046;SDS011;5576;50.008;10.596;2023-03-01T10:34:31;16.15;;;14.32;;
11046;SDS011;5576;50.008;10.596;2023-03-01T10:37:04;16.20;;;14.07;;
11046;SDS011;5576;50.008;10.596;2023-03-01T10:39:36;16.35;;;14.30;;
11046;SDS011;5576;50.008;10.596;2023-03-01T10:42:03;17.03;;;14.80;;
11046;SDS011;5576;50.008;10.596;2023-03-01T10:44:35;15.95;;;14.02;;
11046;SDS011;5576;50.008;10.596;2023-03-01T10:47:26;15.95;;;14.13;;
11046;SDS011;5576;50.008;10.596;2023-03-01T10:49:54;18.40;;;15.18;;
11046;SDS011;5576;50.008;10.596;2023-03-01T10:52:23;16.50;;;14.00;;
11046;SDS011;5576;50.008;10.596;2023-03-01T10:54:53;15.57;;;13.20;;
11046;SDS011;5576;50.008;10.596;2023-03-01T10:57:30;16.60;;;14.02;;
11046;SDS011;5576;50.008;10.596;2023-03-01T11:00:14;15.90;;;14.07;;
11046;SDS011;5576;50.008;10.596;2023-03-01T11:02:46;15.07;;;13.25;;
11046;SDS011;5576;50.008;10.596;2023-03-01T11:05:23;16.20;;;13.57;;
11046;SDS011;5576;50.008;10.596;2023-03-01T11:07:52;16.05;;;13.70;;
11046;SDS011;5576;50.008;10.596;2023-03-01T11:10:21;15.27;;;13.68;;
11046;SDS011;5576;50.008;10.596;2023-03-01T11:12:50;15.90;;;13.80;;
11046;SDS011;5576;50.008;10.596;2023-03-01T11:15:22;16.65;;;13.52;;
11046;SDS011;5576;50.008;10.596;2023-03-01T11:17:53;16.27;;;13.40;;
11046;SDS011;5576;50.008;10.596;2023-03-01T11:20:29;15.55;;;13.23;;
11046;SDS011;5576;50.008;10.596;2023-03-01T11:22:59;16.60;;;13.98;;
11046;SDS011;5576;50.008;10.596;2023-03-01T11:25:32;16.92;;;14.45;;
11046;SDS011;5576;50.008;10.596;2023-03-01T11:28:01;15.70;;;13.80;;
11046;SDS011;5576;50.008;10.596;2023-03-01T11:38:41;15.80;;;14.13;;
11046;SDS011;5576;50.008;10.596;2023-03-01T11:41:10;15.98;;;14.20;;
11046;SDS011;5576;50.008;10.596;2023-03-01T11:46:49;16.80;;;13.88;;
11046;SDS011;5576;50.008;10.596;2023-03-01T11:58:03;15.07;;;13.32;;
11046;SDS011;5576;50.008;10.596;2023-03-01T12:05:59;14.77;;;12.95;;
11046;SDS011;5576;50.008;10.596;2023-03-01T12:22:25;17.73;;;15.07;;
11046;SDS011;5576;50.008;10.596;2023-03-01T12:27:29;13.07;;;11.77;;
11046;SDS011;5576;50.008;10.596;2023-03-01T12:30:26;17.40;;;14.03;;
11046;SDS011;5576;50.008;10.596;2023-03-01T12:33:26;14.27;;;12.73;;
11046;SDS011;5576;50.008;10.596;2023-03-01T12:38:46;14.88;;;12.38;;
11046;SDS011;5576;50.008;10.596;2023-03-01T12:41:33;14.43;;;12.00;;
11046;SDS011;5576;50.008;10.596;2023-03-01T12:52:52;13.55;;;11.50;;
11046;SDS011;5576;50.008;10.596;2023-03-01T12:58:11;12.30;;;11.00;;
11046;SDS011;5576;50.008;10.596;2023-03-01T13:04:12;12.60;;;11.30;;
11046;SDS011;5576;50.008;10.596;2023-03-01T13:20:18;12.65;;;10.57;;
11046;SDS011;5576;50.008;10.596;2023-03-01T13:22:46;13.30;;;11.05;;
11046;SDS011;5576;50.008;10.596;2023-03-01T13:25:14;14.43;;;10.65;;
11046;SDS011;5576;50.008;10.596;2023-03-01T13:27:43;12.52;;;10.38;;
11046;SDS011;5576;50.008;10.596;2023-03-01T13:30:50;13.07;;;10.68;;
11046;SDS011;5576;50.008;10.596;2023-03-01T13:35:49;11.60;;;10.10;;
11046;SDS011;5576;50.008;10.596;2023-03-01T13:41:02;11.77;;;9.98;;
11046;SDS011;5576;50.008;10.596;2023-03-01T13:43:30;11.40;;;9.70;;
11046;SDS011;5576;50.008;10.596;2023-03-01T13:46:21;11.73;;;9.55;;
11046;SDS011;5576;50.008;10.596;2023-03-01T13:48:50;11.15;;;9.60;;
11046;SDS011;5576;50.008;10.596;2023-03-01T13:51:21;12.82;;;9.95;;
11046;SDS011;5576;50.008;10.596;2023-03-01T13:53:51;14.20;;;12.27;;
11046;SDS011;5576;50.008;10.596;2023-03-01T13:56:22;16.35;;;13.45;;
11046;SDS011;5576;50.008;10.596;2023-03-01T14:01:25;12.43;;;10.77;;
11046;SDS011;5576;50.008;10.596;2023-03-01T14:03:53;12.93;;;11.23;;
11046;SDS011;5576;50.008;10.596;2023-03-01T14:06:20;21.35;;;16.23;;
11046;SDS011;5576;50.008;10.596;2023-03-01T14:09:00;16.23;;;13.10;;
11046;SDS011;5576;50.008;10.596;2023-03-01T14:11:34;22.42;;;17.17;;
11046;SDS011;5576;50.008;10.596;2023-03-01T14:16:54;13.43;;;10.50;;
11046;SDS011;5576;50.008;10.596;2023-03-01T14:19:28;12.93;;;10.85;;
11046;SDS011;5576;50.008;10.596;2023-03-01T14:24:47;11.90;;;9.73;;
11046;SDS011;5576;50.008;10.596;2023-03-01T14:27:14;10.75;;;9.65;;
11046;SDS011;5576;50.008;10.596;2023-03-01T14:29:41;10.07;;;8.95;;
11046;SDS011;5576;50.008;10.596;2023-03-01T14:32:08;11.02;;;9.82;;
11046;SDS011;5576;50.008;10.596;2023-03-01T14:34:36;10.20;;;8.82;;
11046;SDS011;5576;50.008;10.596;2023-03-01T14:37:10;11.30;;;9.15;;
11046;SDS011;5576;50.008;10.596;2023-03-01T14:39:57;10.98;;;9.50;;
11046;SDS011;5576;50.008;10.596;2023-03-01T14:42:25;11.65;;;10.27;;
11046;SDS011;5576;50.008;10.596;2023-03-01T14:44:55;10.30;;;9.20;;
11046;SDS011;5576;50.008;10.596;2023-03-01T14:47:30;11.85;;;10.65;;
11046;SDS011;5576;50.008;10.596;2023-03-01T14:49:59;12.20;;;10.23;;
11046;SDS011;5576;50.008;10.596;2023-03-01T14:52:35;13.15;;;10.95;;
11046;SDS011;5576;50.008;10.596;2023-03-01T14:55:04;13.38;;;11.23;;
11046;SDS011;5576;50.008;10.596;2023-03-01T14:57:42;13.13;;;10.48;;
11046;SDS011;5576;50.008;10.596;2023-03-01T15:00:10;13.82;;;11.40;;
11046;SDS011;5576;50.008;10.596;2023-03-01T15:02:44;13.65;;;11.35;;
11046;SDS011;5576;50.008;10.596;2023-03-01T15:05:13;12.63;;;10.82;;
11046;SDS011;5576;50.008;10.596;2023-03-01T15:07:41;13.90;;;11.03;;
11046;SDS011;5576;50.008;10.596;2023-03-01T15:10:21;11.10;;;9.90;;
11046;SDS011;5576;50.008;10.596;2023-03-01T15:12:49;12.02;;;10.15;;
11046;SDS011;5576;50.008;10.596;2023-03-01T15:15:21;12.38;;;10.52;;
11046;SDS011;5576;50.008;10.596;2023-03-01T15:17:50;12.18;;;10.80;;
11046;SDS011;5576;50.008;10.596;2023-03-01T15:20:20;12.63;;;10.93;;
11046;SDS011;5576;50.008;10.596;2023-03-01T15:22:51;12.45;;;10.70;;
11046;SDS011;5576;50.008;10.596;2023-03-01T15:25:18;12.38;;;10.65;;
11046;SDS011;5576;50.008;10.596;2023-03-01T15:27:46;12.33;;;10.73;;
11046;SDS011;5576;50.008;10.596;2023-03-01T15:30:17;12.13;;;10.82;;
11046;SDS011;5576;50.008;10.596;2023-03-01T15:32:45;13.68;;;11.40;;
11046;SDS011;5576;50.008;10.596;2023-03-01T15:38:18;13.88;;;11.73;;
11046;SDS011;5576;50.008;10.596;2023-03-01T15:40:51;15.57;;;13.85;;
11046;SDS011;5576;50.008;10.596;2023-03-01T15:46:16;14.10;;;12.60;;
11046;SDS011;5576;50.008;10.596;2023-03-01T15:48:44;14.20;;;12.63;;
11046;SDS011;5576;50.008;10.596;2023-03-01T15:51:14;15.73;;;14.00;;
11046;SDS011;5576;50.008;10.596;2023-03-01T15:53:40;20.42;;;16.58;;
11046;SDS011;5576;50.008;10.596;2023-03-01T15:56:15;15.70;;;14.00;;
11046;SDS011;5576;50.008;10.596;2023-03-01T15:58:40;17.13;;;13.80;;
11046;SDS011;5576;50.008;10.596;2023-03-01T16:01:10;16.35;;;13.60;;
11046;SDS011;5576;50.008;10.596;2023-03-01T16:03:38;16.80;;;14.98;;
11046;SDS011;5576;50.008;10.596;2023-03-01T16:06:04;16.67;;;14.63;;
11046;SDS011;5576;50.008;10.596;2023-03-01T16:08:29;16.43;;;13.90;;
11046;SDS011;5576;50.008;10.596;2023-03-01T16:10:55;14.48;;;12.95;;
11046;SDS011;5576;50.008;10.596;2023-03-01T16:13:21;15.20;;;12.90;;
11046;SDS011;5576;50.008;10.596;2023-03-01T16:15:46;15.73;;;13.23;;
11046;SDS011;5576;50.008;10.596;2023-03-01T16:18:12;14.30;;;12.77;;
11046;SDS011;5576;50.008;10.596;2023-03-01T16:20:38;15.52;;;13.20;;
11046;SDS011;5576;50.008;10.596;2023-03-01T16:23:06;14.73;;;12.55;;
11046;SDS011;5576;50.008;10.596;2023-03-01T16:25:33;15.73;;;13.43;;